createdAt,value
2022-10-21T00:00:19.707Z,4.10
2022-10-21T00:03:11.829Z,4.10
2022-10-21T00:06:04.604Z,4.00
2022-10-21T00:08:56.791Z,3.90
2022-10-21T00:11:49.006Z,4.00
2022-10-21T00:14:41.146Z,4.00
2022-10-21T00:17:36.021Z,4.10
2022-10-21T00:20:28.147Z,4.00
2022-10-21T00:23:20.275Z,3.80
2022-10-21T00:26:14.159Z,3.80
2022-10-21T00:29:06.313Z,3.70
2022-10-21T00:31:58.528Z,3.60
2022-10-21T00:34:50.657Z,3.70
2022-10-21T00:37:42.828Z,3.70
2022-10-21T00:40:35.038Z,3.70
2022-10-21T00:43:27.918Z,3.60
2022-10-21T00:46:26.380Z,3.50
2022-10-21T00:49:24.044Z,3.60
2022-10-21T00:52:20.024Z,3.50
2022-10-21T00:55:12.180Z,3.60
2022-10-21T00:58:05.876Z,3.60
2022-10-21T01:01:01.140Z,3.60
2022-10-21T01:03:53.283Z,3.60
2022-10-21T01:06:46.278Z,3.60
2022-10-21T01:09:38.589Z,3.60
2022-10-21T01:12:44.002Z,3.40
2022-10-21T01:15:49.622Z,3.40
2022-10-21T01:18:53.232Z,3.30
2022-10-21T01:21:54.226Z,3.20
2022-10-21T01:25:05.270Z,3.10
2022-10-21T01:28:22.268Z,3.30
2022-10-21T01:31:25.279Z,3.30
2022-10-21T01:34:29.320Z,3.40
2022-10-21T01:37:35.435Z,3.40
2022-10-21T01:40:31.742Z,3.30
2022-10-21T01:43:47.846Z,3.10
2022-10-21T01:46:56.748Z,3.00
2022-10-21T01:49:52.392Z,3.00
2022-10-21T01:52:48.290Z,2.80
2022-10-21T01:55:41.572Z,2.80
2022-10-21T01:58:36.800Z,3.00
2022-10-21T02:01:30.353Z,3.10
2022-10-21T02:04:24.239Z,3.10
2022-10-21T02:07:16.455Z,3.10
2022-10-21T02:10:09.357Z,3.30
2022-10-21T02:13:04.816Z,3.20
2022-10-21T02:16:02.555Z,3.10
2022-10-21T02:18:56.444Z,3.10
2022-10-21T02:21:52.111Z,3.20
2022-10-21T02:25:01.455Z,3.10
2022-10-21T02:27:54.416Z,3.20
2022-10-21T02:31:13.673Z,3.40
2022-10-21T02:34:30.486Z,3.50
2022-10-21T02:37:58.391Z,3.60
2022-10-21T02:40:55.778Z,3.70
2022-10-21T02:44:02.979Z,3.60
2022-10-21T02:46:55.108Z,3.90
2022-10-21T02:49:47.256Z,4.00
2022-10-21T02:52:39.435Z,4.00
2022-10-21T02:55:31.597Z,4.10
2022-10-21T02:58:23.763Z,4.20
2022-10-21T03:01:15.974Z,4.30
2022-10-21T03:04:08.117Z,4.30
2022-10-21T03:07:00.254Z,4.40
2022-10-21T03:09:52.349Z,4.50
2022-10-21T03:12:44.424Z,4.40
2022-10-21T03:15:36.556Z,4.40
2022-10-21T03:18:28.683Z,4.40
2022-10-21T03:21:20.806Z,4.40
2022-10-21T03:24:25.006Z,4.30
2022-10-21T03:27:20.426Z,4.40
2022-10-21T03:30:12.585Z,4.40
2022-10-21T03:33:04.691Z,4.20
2022-10-21T03:35:56.811Z,4.20
2022-10-21T03:38:48.959Z,4.00
2022-10-21T03:41:41.084Z,4.00
2022-10-21T03:44:33.589Z,4.10
2022-10-21T03:47:25.736Z,4.10
2022-10-21T03:50:23.654Z,4.10
2022-10-21T03:53:41.451Z,3.90
2022-10-21T03:56:30.552Z,3.80
2022-10-21T03:59:22.669Z,3.90
2022-10-21T04:02:14.822Z,3.70
2022-10-21T04:05:08.020Z,3.50
2022-10-21T04:08:00.159Z,3.20
2022-10-21T04:10:52.313Z,3.00
2022-10-21T04:13:44.737Z,2.90
2022-10-21T04:16:37.065Z,2.90
2022-10-21T04:19:29.216Z,2.90
2022-10-21T04:22:21.372Z,3.00
2022-10-21T04:25:13.558Z,3.20
2022-10-21T04:28:05.691Z,3.30
2022-10-21T04:30:57.781Z,3.10
2022-10-21T04:33:51.832Z,2.90
2022-10-21T04:36:44.080Z,2.90
2022-10-21T04:39:36.219Z,3.00
2022-10-21T04:45:25.413Z,2.60
2022-10-21T04:48:18.050Z,2.70
2022-10-21T04:51:10.172Z,2.70
2022-10-21T04:54:02.269Z,2.80
2022-10-21T04:56:54.379Z,2.90
2022-10-21T04:59:46.474Z,3.00
2022-10-21T05:02:38.851Z,3.10
2022-10-21T05:05:31.253Z,3.10
2022-10-21T05:08:23.448Z,3.10
2022-10-21T05:11:15.761Z,3.10
2022-10-21T05:14:08.060Z,3.00
2022-10-21T05:17:00.299Z,3.10
2022-10-21T05:19:52.400Z,3.20
2022-10-21T05:22:44.621Z,3.40
2022-10-21T05:25:37.447Z,3.70
2022-10-21T05:28:29.568Z,4.10
2022-10-21T05:31:21.707Z,4.50
2022-10-21T05:34:13.856Z,5.00
2022-10-21T05:37:06.844Z,5.50
2022-10-21T05:39:58.981Z,6.20
2022-10-21T05:42:51.107Z,6.70
2022-10-21T05:45:43.249Z,7.20
2022-10-21T05:48:36.490Z,7.90
2022-10-21T05:51:28.704Z,7.80
2022-10-21T05:54:20.937Z,7.80
2022-10-21T05:57:13.081Z,8.40
2022-10-21T06:00:06.676Z,8.50
2022-10-21T06:02:58.771Z,9.00
2022-10-21T06:05:51.447Z,9.60
2022-10-21T06:08:43.642Z,10.10
2022-10-21T06:11:35.872Z,10.30
2022-10-21T06:14:28.073Z,10.00
2022-10-21T06:17:20.331Z,9.70
2022-10-21T06:20:12.473Z,9.60
2022-10-21T06:23:04.755Z,9.40
2022-10-21T06:25:56.897Z,9.40
2022-10-21T06:28:49.062Z,10.10
2022-10-21T06:31:41.399Z,10.70
2022-10-21T06:34:33.545Z,10.90
2022-10-21T06:37:25.729Z,10.70
2022-10-21T06:40:17.968Z,10.60
2022-10-21T06:43:10.256Z,10.90
2022-10-21T06:46:04.712Z,10.80
2022-10-21T06:48:57.008Z,10.80
2022-10-21T06:51:49.146Z,10.70
2022-10-21T06:54:41.298Z,10.00
2022-10-21T06:57:33.511Z,9.40
2022-10-21T07:00:25.808Z,10.30
2022-10-21T07:03:18.028Z,10.50
2022-10-21T07:06:10.640Z,11.10
2022-10-21T07:09:04.862Z,11.10
2022-10-21T07:11:57.116Z,11.00
2022-10-21T07:14:50.066Z,10.70
2022-10-21T07:17:42.327Z,10.60
2022-10-21T07:20:35.101Z,10.70
2022-10-21T07:23:27.225Z,10.10
2022-10-21T07:26:24.274Z,10.00
2022-10-21T07:29:16.725Z,10.10
2022-10-21T07:32:08.831Z,9.90
2022-10-21T07:35:01.281Z,9.60
2022-10-21T07:37:53.450Z,9.40
2022-10-21T07:40:45.712Z,9.50
2022-10-21T07:43:37.833Z,9.90
2022-10-21T07:46:30.425Z,9.60
2022-10-21T07:49:23.458Z,9.30
2022-10-21T07:55:14.452Z,9.00
2022-10-21T07:58:06.607Z,9.00
2022-10-21T08:01:04.460Z,9.00
2022-10-21T08:03:57.477Z,9.10
2022-10-21T08:06:49.815Z,9.10
2022-10-21T08:09:42.001Z,9.20
2022-10-21T08:12:34.150Z,9.30
2022-10-21T08:15:26.313Z,9.50
2022-10-21T08:18:19.050Z,9.70
2022-10-21T08:21:11.371Z,9.90
2022-10-21T08:24:04.054Z,10.10
2022-10-21T08:26:56.646Z,10.10
2022-10-21T08:29:48.741Z,10.10
2022-10-21T08:32:41.170Z,9.70
2022-10-21T08:35:33.864Z,10.10
2022-10-21T08:38:26.020Z,10.20
2022-10-21T08:41:29.802Z,10.10
2022-10-21T08:44:36.935Z,9.90
2022-10-21T08:47:36.984Z,9.70
2022-10-21T08:50:36.669Z,9.70
2022-10-21T08:53:41.180Z,9.60
2022-10-21T08:56:33.317Z,9.30
2022-10-21T08:59:26.807Z,9.30
2022-10-21T09:02:37.493Z,9.20
2022-10-21T09:05:47.191Z,9.10
2022-10-21T09:09:04.510Z,9.10
2022-10-21T09:12:13.115Z,9.30
2022-10-21T09:15:19.645Z,9.10
2022-10-21T09:18:17.650Z,9.00
2022-10-21T09:21:40.815Z,9.10
2022-10-21T09:24:59.834Z,9.00
2022-10-21T09:27:57.184Z,9.10
2022-10-21T09:30:50.531Z,9.20
2022-10-21T09:33:47.252Z,9.20
2022-10-21T09:36:48.049Z,9.20
2022-10-21T09:39:42.137Z,9.20
2022-10-21T09:42:46.799Z,9.20
2022-10-21T09:45:43.495Z,9.30
2022-10-21T09:49:16.334Z,9.40
2022-10-21T09:52:04.609Z,9.30
2022-10-21T09:54:57.037Z,9.30
2022-10-21T09:58:04.115Z,9.30
2022-10-21T10:00:56.872Z,9.40
2022-10-21T10:03:51.751Z,9.30
2022-10-21T10:06:44.766Z,9.50
2022-10-21T10:09:44.750Z,9.60
2022-10-21T10:12:37.029Z,9.80
2022-10-21T10:15:37.138Z,9.90
2022-10-21T10:18:29.290Z,9.90
2022-10-21T10:21:22.761Z,9.90
2022-10-21T10:24:21.977Z,9.90
2022-10-21T10:27:26.669Z,10.00
2022-10-21T10:30:20.357Z,10.20
2022-10-21T10:33:23.176Z,10.30
2022-10-21T10:36:32.638Z,10.40
2022-10-21T10:39:30.547Z,10.50
2022-10-21T10:42:31.869Z,10.80
2022-10-21T10:45:24.222Z,11.10
2022-10-21T10:48:36.431Z,11.40
2022-10-21T10:51:33.627Z,11.30
2022-10-21T10:54:28.448Z,11.20
2022-10-21T10:57:34.084Z,11.10
2022-10-21T11:00:43.291Z,11.00
2022-10-21T11:03:42.548Z,11.00
2022-10-21T11:06:42.441Z,11.00
2022-10-21T11:09:35.345Z,11.00
2022-10-21T11:12:27.848Z,11.10
2022-10-21T11:15:26.242Z,11.10
2022-10-21T11:18:55.667Z,11.10
2022-10-21T11:22:11.684Z,11.10
2022-10-21T11:25:09.403Z,11.20
2022-10-21T11:28:04.245Z,11.20
2022-10-21T11:31:17.485Z,11.20
2022-10-21T11:34:25.145Z,11.30
2022-10-21T11:37:24.409Z,11.20
2022-10-21T11:40:49.450Z,11.30
2022-10-21T11:44:16.392Z,11.30
2022-10-21T11:47:36.784Z,11.20
2022-10-21T11:51:05.282Z,11.30
2022-10-21T11:54:07.207Z,11.30
2022-10-21T11:57:14.463Z,11.40
2022-10-21T12:00:09.690Z,11.40
2022-10-21T12:03:18.096Z,11.40
2022-10-21T12:06:27.652Z,11.40
2022-10-21T12:09:43.757Z,11.40
2022-10-21T12:12:41.167Z,11.40
2022-10-21T12:16:04.916Z,11.40
2022-10-21T12:19:01.180Z,11.30
2022-10-21T12:21:53.387Z,11.30
2022-10-21T12:25:07.064Z,11.30
2022-10-21T12:28:13.859Z,11.40
2022-10-21T12:31:18.045Z,11.40
2022-10-21T12:34:11.477Z,11.40
2022-10-21T12:37:03.657Z,11.40
2022-10-21T12:40:15.108Z,11.50
2022-10-21T12:43:19.995Z,11.50
2022-10-21T12:46:12.241Z,11.50
2022-10-21T12:49:22.419Z,11.50
2022-10-21T12:52:17.754Z,11.40
2022-10-21T12:55:23.247Z,11.40
2022-10-21T12:58:27.153Z,11.30
2022-10-21T13:01:40.158Z,11.40
2022-10-21T13:04:32.245Z,11.30
2022-10-21T13:07:28.594Z,11.30
2022-10-21T13:10:25.556Z,11.40
2022-10-21T13:13:43.975Z,11.40
2022-10-21T13:16:40.301Z,11.40
2022-10-21T13:19:34.972Z,11.40
2022-10-21T13:22:38.994Z,11.40
2022-10-21T13:25:34.681Z,11.40
2022-10-21T13:28:26.907Z,11.40
2022-10-21T13:31:21.280Z,11.40
2022-10-21T13:34:29.145Z,11.40
2022-10-21T13:37:31.542Z,11.40
2022-10-21T13:40:30.723Z,11.40
2022-10-21T13:43:31.126Z,11.50
2022-10-21T13:46:26.864Z,11.60
2022-10-21T13:49:30.302Z,11.60
2022-10-21T13:52:28.665Z,11.50
2022-10-21T13:55:25.773Z,11.50
2022-10-21T13:58:18.022Z,11.50
2022-10-21T14:01:14.342Z,11.50
2022-10-21T14:04:20.716Z,11.50
2022-10-21T14:07:19.329Z,11.50
2022-10-21T14:10:15.729Z,11.50
2022-10-21T14:13:08.299Z,11.40
2022-10-21T14:16:01.089Z,11.40
2022-10-21T14:18:54.070Z,11.40
2022-10-21T14:21:50.672Z,11.40
2022-10-21T14:24:42.832Z,11.30
2022-10-21T14:27:36.089Z,11.40
2022-10-21T14:30:32.248Z,11.50
2022-10-21T14:33:28.386Z,11.40
2022-10-21T14:36:23.586Z,11.40
2022-10-21T14:39:20.982Z,11.30
2022-10-21T14:42:17.145Z,11.30
2022-10-21T14:45:16.896Z,11.30
2022-10-21T14:48:30.713Z,11.20
2022-10-21T14:51:23.455Z,11.20
2022-10-21T14:54:39.544Z,11.20
2022-10-21T14:57:59.032Z,11.20
2022-10-21T15:00:56.683Z,11.10
2022-10-21T15:03:52.286Z,11.10
2022-10-21T15:07:01.789Z,11.10
2022-10-21T15:10:02.478Z,11.10
2022-10-21T15:12:54.879Z,11.00
2022-10-21T15:15:54.226Z,11.00
2022-10-21T15:18:48.985Z,10.90
2022-10-21T15:21:49.459Z,10.90
2022-10-21T15:24:43.086Z,10.90
2022-10-21T15:27:42.662Z,10.80
2022-10-21T15:30:36.560Z,10.80
2022-10-21T15:33:29.424Z,10.80
2022-10-21T15:36:21.719Z,10.80
2022-10-21T15:39:13.928Z,10.70
2022-10-21T15:42:06.093Z,10.60
2022-10-21T15:44:58.239Z,10.50
2022-10-21T15:47:54.800Z,10.50
2022-10-21T15:50:46.957Z,10.50
2022-10-21T15:53:41.045Z,10.50
2022-10-21T15:56:36.007Z,10.60
2022-10-21T15:59:32.561Z,10.50
2022-10-21T16:02:25.002Z,10.60
2022-10-21T16:05:17.904Z,10.60
2022-10-21T16:08:12.310Z,10.50
2022-10-21T16:11:04.480Z,10.50
2022-10-21T16:13:56.734Z,10.50
2022-10-21T16:16:52.503Z,10.40
2022-10-21T16:19:44.640Z,10.40
2022-10-21T16:22:37.041Z,10.40
2022-10-21T16:25:29.559Z,10.30
2022-10-21T16:28:21.687Z,10.30
2022-10-21T16:31:15.064Z,10.20
2022-10-21T16:34:07.176Z,10.30
2022-10-21T16:37:01.055Z,10.30
2022-10-21T16:39:53.885Z,10.20
2022-10-21T16:42:46.321Z,10.00
2022-10-21T16:45:38.800Z,10.00
2022-10-21T16:48:30.938Z,10.10
2022-10-21T16:51:24.825Z,10.10
2022-10-21T16:54:17.004Z,10.10
2022-10-21T16:57:09.154Z,10.10
2022-10-21T17:00:01.273Z,10.20
2022-10-21T17:02:53.855Z,10.20
2022-10-21T17:05:46.027Z,10.40
2022-10-21T17:08:38.267Z,10.50
2022-10-21T17:11:36.171Z,10.60
2022-10-21T17:14:28.507Z,10.70
2022-10-21T17:17:21.104Z,10.70
2022-10-21T17:20:13.241Z,10.80
2022-10-21T17:23:05.456Z,10.80
2022-10-21T17:25:57.752Z,10.90
2022-10-21T17:28:50.456Z,11.00
2022-10-21T17:31:43.310Z,11.00
2022-10-21T17:34:38.780Z,11.00
2022-10-21T17:37:30.928Z,11.10
2022-10-21T17:40:26.312Z,11.10
2022-10-21T17:43:18.442Z,11.00
2022-10-21T17:46:22.217Z,11.00
2022-10-21T17:49:14.520Z,11.00
2022-10-21T17:52:06.665Z,11.10
2022-10-21T17:54:58.810Z,11.10
2022-10-21T17:57:51.023Z,11.10
2022-10-21T18:00:44.693Z,11.20
2022-10-21T18:03:37.893Z,11.20
2022-10-21T18:06:30.077Z,11.20
2022-10-21T18:09:22.339Z,11.20
2022-10-21T18:12:14.586Z,11.30
2022-10-21T18:15:07.300Z,11.20
2022-10-21T18:17:59.454Z,11.30
2022-10-21T18:20:51.590Z,11.40
2022-10-21T18:23:46.370Z,11.30
2022-10-21T18:26:38.539Z,11.40
2022-10-21T18:29:30.666Z,11.40
2022-10-21T18:32:22.859Z,11.40
2022-10-21T18:35:15.723Z,11.40
2022-10-21T18:38:07.861Z,11.40
2022-10-21T18:41:18.905Z,11.40
2022-10-21T18:44:13.996Z,11.40
2022-10-21T18:47:06.216Z,11.40
2022-10-21T18:49:58.493Z,11.30
2022-10-21T18:52:51.051Z,11.20
2022-10-21T18:55:43.192Z,11.10
2022-10-21T18:58:37.549Z,11.10
2022-10-21T19:01:29.746Z,11.00
2022-10-21T19:04:21.959Z,11.00
2022-10-21T19:07:14.284Z,11.00
2022-10-21T19:10:06.959Z,11.00
2022-10-21T19:12:59.077Z,10.90
2022-10-21T19:15:51.212Z,10.90
2022-10-21T19:18:43.310Z,10.90
2022-10-21T19:21:35.588Z,10.90
2022-10-21T19:24:27.947Z,10.80
2022-10-21T19:27:20.086Z,10.80
2022-10-21T19:30:13.612Z,10.80
2022-10-21T19:33:05.783Z,10.80
2022-10-21T19:36:02.143Z,10.70
2022-10-21T19:38:54.276Z,10.80
2022-10-21T19:41:46.596Z,10.80
2022-10-21T19:44:38.730Z,10.80
2022-10-21T19:47:31.289Z,10.80
2022-10-21T19:50:23.426Z,10.70
2022-10-21T19:53:17.386Z,10.50
2022-10-21T19:56:09.607Z,10.30
2022-10-21T19:59:02.780Z,10.10
2022-10-21T20:01:56.373Z,10.10
2022-10-21T20:04:48.565Z,10.10
2022-10-21T20:07:41.245Z,10.10
2022-10-21T20:10:33.897Z,10.10
2022-10-21T20:13:26.038Z,10.20
2022-10-21T20:16:21.088Z,10.10
2022-10-21T20:19:13.360Z,9.90
2022-10-21T20:22:05.497Z,9.90
2022-10-21T20:24:57.623Z,9.90
2022-10-21T20:27:49.715Z,9.90
2022-10-21T20:30:42.336Z,9.90
2022-10-21T20:33:37.977Z,10.00
2022-10-21T20:36:35.195Z,10.00
2022-10-21T20:39:27.367Z,10.00
2022-10-21T20:42:19.481Z,10.00
2022-10-21T20:45:11.610Z,10.10
2022-10-21T20:48:03.939Z,10.20
2022-10-21T20:51:02.709Z,10.20
2022-10-21T20:53:59.701Z,10.30
2022-10-21T20:56:51.923Z,10.30
2022-10-21T20:59:44.037Z,10.30
2022-10-21T21:02:37.559Z,10.30
2022-10-21T21:05:29.707Z,10.40
2022-10-21T21:08:21.857Z,10.40
2022-10-21T21:11:14.648Z,10.40
2022-10-21T21:14:07.095Z,10.30
2022-10-21T21:16:59.241Z,10.10
2022-10-21T21:19:51.433Z,10.00
2022-10-21T21:22:43.873Z,10.00
2022-10-21T21:25:35.990Z,10.10
2022-10-21T21:28:30.582Z,10.20
2022-10-21T21:31:28.622Z,10.30
2022-10-21T21:34:20.756Z,10.30
2022-10-21T21:37:13.015Z,10.40
2022-10-21T21:40:05.758Z,10.50
2022-10-21T21:42:57.888Z,10.50
2022-10-21T21:45:50.134Z,10.40
2022-10-21T21:48:44.553Z,10.50
2022-10-21T21:51:38.959Z,10.40
2022-10-21T21:54:31.068Z,10.40
2022-10-21T21:57:27.791Z,10.40
2022-10-21T22:00:20.530Z,10.40
2022-10-21T22:03:12.636Z,10.30
2022-10-21T22:06:05.611Z,10.20
2022-10-21T22:08:57.876Z,10.30
2022-10-21T22:11:50.047Z,10.30
2022-10-21T22:14:42.357Z,10.30
2022-10-21T22:17:34.542Z,10.40
2022-10-21T22:20:26.674Z,10.50
2022-10-21T22:23:20.493Z,10.50
2022-10-21T22:26:13.591Z,10.40
2022-10-21T22:29:05.708Z,10.40
2022-10-21T22:31:57.881Z,10.50
2022-10-21T22:34:50.090Z,10.40
2022-10-21T22:37:42.475Z,10.20
2022-10-21T22:40:34.749Z,10.20
2022-10-21T22:43:27.954Z,10.20
2022-10-21T22:46:35.382Z,10.30
2022-10-21T22:49:27.569Z,10.40
2022-10-21T22:52:19.736Z,10.40
2022-10-21T22:55:11.820Z,10.40
2022-10-21T22:58:04.041Z,10.40
2022-10-21T23:03:53.157Z,10.40
2022-10-21T23:06:45.294Z,10.30
2022-10-21T23:09:37.466Z,10.40
2022-10-21T23:12:29.596Z,10.30
2022-10-21T23:15:21.718Z,10.40
2022-10-21T23:18:14.510Z,10.40
2022-10-21T23:21:06.903Z,10.40
2022-10-21T23:23:59.104Z,10.40
2022-10-21T23:26:51.198Z,10.30
2022-10-21T23:29:43.426Z,10.30
2022-10-21T23:32:35.647Z,10.20
2022-10-21T23:35:27.860Z,10.20
2022-10-21T23:38:20.014Z,10.30
2022-10-21T23:41:12.238Z,10.30
2022-10-21T23:44:04.402Z,10.30
2022-10-21T23:46:57.066Z,10.30
2022-10-21T23:49:49.257Z,10.30
2022-10-21T23:52:41.439Z,10.30
2022-10-21T23:58:25.735Z,10.20
